sensor_id;sensor_type;location;lat;lon;timestamp;P1;durP1;ratioP1;P2;durP2;ratioP2
48849;SDS011;63210;53.370;6.770;2022-11-04T00:00:52;26.55;;;19.30;;
48849;SDS011;63210;53.370;6.770;2022-11-04T00:03:20;24.23;;;18.25;;
48849;SDS011;63210;53.370;6.770;2022-11-04T00:05:48;25.65;;;20.38;;
48849;SDS011;63210;53.370;6.770;2022-11-04T00:08:13;23.73;;;18.63;;
48849;SDS011;63210;53.370;6.770;2022-11-04T00:10:57;24.65;;;18.40;;
48849;SDS011;63210;53.370;6.770;2022-11-04T00:13:44;26.80;;;19.85;;
48849;SDS011;63210;53.370;6.770;2022-11-04T00:16:10;28.40;;;20.40;;
48849;SDS011;63210;53.370;6.770;2022-11-04T00:18:54;20.17;;;17.17;;
48849;SDS011;63210;53.370;6.770;2022-11-04T00:21:19;24.08;;;20.40;;
48849;SDS011;63210;53.370;6.770;2022-11-04T00:24:07;28.58;;;21.40;;
48849;SDS011;63210;53.370;6.770;2022-11-04T00:27:00;29.50;;;24.27;;
48849;SDS011;63210;53.370;6.770;2022-11-04T00:29:44;29.50;;;21.35;;
48849;SDS011;63210;53.370;6.770;2022-11-04T00:32:09;29.45;;;22.55;;
48849;SDS011;63210;53.370;6.770;2022-11-04T00:34:53;29.75;;;21.15;;
48849;SDS011;63210;53.370;6.770;2022-11-04T00:37:18;30.40;;;22.52;;
48849;SDS011;63210;53.370;6.770;2022-11-04T00:39:50;29.73;;;22.15;;
48849;SDS011;63210;53.370;6.770;2022-11-04T00:45:01;27.02;;;21.90;;
48849;SDS011;63210;53.370;6.770;2022-11-04T00:47:40;31.75;;;24.95;;
48849;SDS011;63210;53.370;6.770;2022-11-04T00:50:05;32.20;;;23.05;;
48849;SDS011;63210;53.370;6.770;2022-11-04T00:52:34;27.63;;;21.98;;
48849;SDS011;63210;53.370;6.770;2022-11-04T00:55:05;27.73;;;22.02;;
48849;SDS011;63210;53.370;6.770;2022-11-04T00:57:33;24.35;;;17.85;;
48849;SDS011;63210;53.370;6.770;2022-11-04T01:00:08;17.15;;;15.25;;
48849;SDS011;63210;53.370;6.770;2022-11-04T01:02:34;15.77;;;13.57;;
48849;SDS011;63210;53.370;6.770;2022-11-04T01:05:05;10.43;;;8.27;;
48849;SDS011;63210;53.370;6.770;2022-11-04T01:07:30;6.85;;;5.70;;
48849;SDS011;63210;53.370;6.770;2022-11-04T01:09:59;6.25;;;5.28;;
48849;SDS011;63210;53.370;6.770;2022-11-04T01:12:36;7.40;;;5.40;;
48849;SDS011;63210;53.370;6.770;2022-11-04T01:17:30;6.05;;;4.60;;
48849;SDS011;63210;53.370;6.770;2022-11-04T01:20:05;5.95;;;3.33;;
48849;SDS011;63210;53.370;6.770;2022-11-04T01:22:35;5.75;;;3.90;;
48849;SDS011;63210;53.370;6.770;2022-11-04T01:25:01;5.70;;;3.72;;
48849;SDS011;63210;53.370;6.770;2022-11-04T01:29:59;3.73;;;2.03;;
48849;SDS011;63210;53.370;6.770;2022-11-04T01:32:33;2.47;;;1.90;;
48849;SDS011;63210;53.370;6.770;2022-11-04T01:35:07;2.40;;;1.00;;
48849;SDS011;63210;53.370;6.770;2022-11-04T01:37:33;2.53;;;0.85;;
48849;SDS011;63210;53.370;6.770;2022-11-04T01:40:00;3.03;;;0.90;;
48849;SDS011;63210;53.370;6.770;2022-11-04T01:42:26;1.85;;;0.80;;
48849;SDS011;63210;53.370;6.770;2022-11-04T01:45:00;4.07;;;1.00;;
48849;SDS011;63210;53.370;6.770;2022-11-04T01:47:39;0.85;;;0.52;;
48849;SDS011;63210;53.370;6.770;2022-11-04T01:50:15;2.45;;;0.93;;
48849;SDS011;63210;53.370;6.770;2022-11-04T01:55:16;4.78;;;0.70;;
48849;SDS011;63210;53.370;6.770;2022-11-04T01:57:46;2.72;;;0.60;;
48849;SDS011;63210;53.370;6.770;2022-11-04T02:00:18;2.92;;;0.60;;
48849;SDS011;63210;53.370;6.770;2022-11-04T02:05:36;7.43;;;0.80;;
48849;SDS011;63210;53.370;6.770;2022-11-04T02:08:05;1.92;;;0.70;;
48849;SDS011;63210;53.370;6.770;2022-11-04T02:10:33;0.75;;;0.50;;
48849;SDS011;63210;53.370;6.770;2022-11-04T02:13:00;3.58;;;0.80;;
48849;SDS011;63210;53.370;6.770;2022-11-04T02:15:36;2.90;;;0.90;;
48849;SDS011;63210;53.370;6.770;2022-11-04T02:20:56;1.13;;;0.50;;
48849;SDS011;63210;53.370;6.770;2022-11-04T02:31:43;2.42;;;0.90;;
48849;SDS011;63210;53.370;6.770;2022-11-04T02:37:11;5.05;;;1.10;;
48849;SDS011;63210;53.370;6.770;2022-11-04T02:39:49;4.30;;;1.20;;
48849;SDS011;63210;53.370;6.770;2022-11-04T02:45:03;3.08;;;1.45;;
48849;SDS011;63210;53.370;6.770;2022-11-04T02:47:35;4.43;;;0.90;;
48849;SDS011;63210;53.370;6.770;2022-11-04T02:50:12;6.70;;;1.17;;
48849;SDS011;63210;53.370;6.770;2022-11-04T02:55:14;8.90;;;1.10;;
48849;SDS011;63210;53.370;6.770;2022-11-04T02:57:43;5.15;;;1.13;;
48849;SDS011;63210;53.370;6.770;2022-11-04T03:00:15;4.90;;;1.10;;
48849;SDS011;63210;53.370;6.770;2022-11-04T03:05:16;9.73;;;0.93;;
48849;SDS011;63210;53.370;6.770;2022-11-04T03:07:43;5.88;;;0.98;;
48849;SDS011;63210;53.370;6.770;2022-11-04T03:10:27;2.78;;;0.90;;
48849;SDS011;63210;53.370;6.770;2022-11-04T03:12:58;6.20;;;1.10;;
48849;SDS011;63210;53.370;6.770;2022-11-04T03:15:32;6.30;;;1.00;;
48849;SDS011;63210;53.370;6.770;2022-11-04T03:20:24;10.32;;;1.25;;
48849;SDS011;63210;53.370;6.770;2022-11-04T03:22:51;7.10;;;1.17;;
48849;SDS011;63210;53.370;6.770;2022-11-04T03:30:44;7.93;;;0.88;;
48849;SDS011;63210;53.370;6.770;2022-11-04T03:33:32;3.63;;;0.90;;
48849;SDS011;63210;53.370;6.770;2022-11-04T03:36:06;10.60;;;1.05;;
48849;SDS011;63210;53.370;6.770;2022-11-04T03:41:06;13.48;;;1.00;;
48849;SDS011;63210;53.370;6.770;2022-11-04T03:43:39;4.25;;;1.52;;
48849;SDS011;63210;53.370;6.770;2022-11-04T03:46:08;7.28;;;1.10;;
48849;SDS011;63210;53.370;6.770;2022-11-04T03:48:47;9.65;;;1.17;;
48849;SDS011;63210;53.370;6.770;2022-11-04T03:51:18;4.53;;;0.90;;
48849;SDS011;63210;53.370;6.770;2022-11-04T03:53:43;9.63;;;1.65;;
48849;SDS011;63210;53.370;6.770;2022-11-04T03:59:06;11.02;;;1.40;;
48849;SDS011;63210;53.370;6.770;2022-11-04T04:01:56;9.48;;;1.75;;
48849;SDS011;63210;53.370;6.770;2022-11-04T04:04:38;9.20;;;1.52;;
48849;SDS011;63210;53.370;6.770;2022-11-04T04:12:21;6.13;;;1.27;;
48849;SDS011;63210;53.370;6.770;2022-11-04T04:21:00;7.68;;;1.45;;
48849;SDS011;63210;53.370;6.770;2022-11-04T04:23:26;5.88;;;1.60;;
48849;SDS011;63210;53.370;6.770;2022-11-04T04:26:11;9.82;;;1.17;;
48849;SDS011;63210;53.370;6.770;2022-11-04T04:29:02;11.98;;;1.20;;
48849;SDS011;63210;53.370;6.770;2022-11-04T04:31:43;8.80;;;1.13;;
48849;SDS011;63210;53.370;6.770;2022-11-04T04:34:43;8.40;;;1.40;;
48849;SDS011;63210;53.370;6.770;2022-11-04T04:37:37;4.85;;;1.20;;
48849;SDS011;63210;53.370;6.770;2022-11-04T04:40:07;5.85;;;1.33;;
48849;SDS011;63210;53.370;6.770;2022-11-04T04:42:56;7.18;;;0.90;;
48849;SDS011;63210;53.370;6.770;2022-11-04T04:46:16;4.43;;;1.20;;
48849;SDS011;63210;53.370;6.770;2022-11-04T04:48:49;6.38;;;1.02;;
48849;SDS011;63210;53.370;6.770;2022-11-04T04:51:33;1.90;;;0.70;;
48849;SDS011;63210;53.370;6.770;2022-11-04T04:54:18;3.75;;;0.88;;
48849;SDS011;63210;53.370;6.770;2022-11-04T04:56:57;5.95;;;0.90;;
48849;SDS011;63210;53.370;6.770;2022-11-04T04:59:23;3.10;;;0.80;;
48849;SDS011;63210;53.370;6.770;2022-11-04T05:02:12;3.33;;;0.82;;
48849;SDS011;63210;53.370;6.770;2022-11-04T05:04:40;4.80;;;0.80;;
48849;SDS011;63210;53.370;6.770;2022-11-04T05:07:12;2.38;;;0.70;;
48849;SDS011;63210;53.370;6.770;2022-11-04T05:09:46;2.25;;;0.80;;
48849;SDS011;63210;53.370;6.770;2022-11-04T05:12:18;4.88;;;0.90;;
48849;SDS011;63210;53.370;6.770;2022-11-04T05:14:52;2.38;;;1.05;;
48849;SDS011;63210;53.370;6.770;2022-11-04T05:17:18;5.72;;;1.00;;
48849;SDS011;63210;53.370;6.770;2022-11-04T05:19:55;3.28;;;0.80;;
48849;SDS011;63210;53.370;6.770;2022-11-04T05:22:26;4.30;;;0.93;;
48849;SDS011;63210;53.370;6.770;2022-11-04T05:25:01;2.60;;;1.00;;
48849;SDS011;63210;53.370;6.770;2022-11-04T05:27:45;3.92;;;1.00;;
48849;SDS011;63210;53.370;6.770;2022-11-04T05:30:21;2.03;;;1.00;;
48849;SDS011;63210;53.370;6.770;2022-11-04T05:33:04;2.97;;;0.95;;
48849;SDS011;63210;53.370;6.770;2022-11-04T05:36:21;4.30;;;0.95;;
48849;SDS011;63210;53.370;6.770;2022-11-04T05:38:50;3.72;;;1.10;;
48849;SDS011;63210;53.370;6.770;2022-11-04T05:41:46;4.10;;;1.13;;
48849;SDS011;63210;53.370;6.770;2022-11-04T05:53:18;17.95;;;9.05;;
48849;SDS011;63210;53.370;6.770;2022-11-04T05:58:39;22.33;;;14.90;;
48849;SDS011;63210;53.370;6.770;2022-11-04T14:45:27;10.43;;;1.40;;
48849;SDS011;63210;53.370;6.770;2022-11-04T14:48:26;18.40;;;2.17;;
48849;SDS011;63210;53.370;6.770;2022-11-04T14:51:16;11.02;;;1.67;;
48849;SDS011;63210;53.370;6.770;2022-11-04T15:04:17;11.82;;;1.50;;
48849;SDS011;63210;53.370;6.770;2022-11-04T15:07:41;9.75;;;1.73;;
48849;SDS011;63210;53.370;6.770;2022-11-04T20:57:15;11.63;;;3.00;;
48849;SDS011;63210;53.370;6.770;2022-11-04T21:03:16;9.18;;;2.85;;
48849;SDS011;63210;53.370;6.770;2022-11-04T21:15:36;15.45;;;3.90;;
48849;SDS011;63210;53.370;6.770;2022-11-04T21:36:14;9.82;;;3.20;;
48849;SDS011;63210;53.370;6.770;2022-11-04T21:52:21;9.63;;;3.20;;
48849;SDS011;63210;53.370;6.770;2022-11-04T21:55:33;14.07;;;3.22;;
48849;SDS011;63210;53.370;6.770;2022-11-04T21:58:37;14.70;;;3.30;;
48849;SDS011;63210;53.370;6.770;2022-11-04T22:01:49;11.52;;;3.05;;
48849;SDS011;63210;53.370;6.770;2022-11-04T22:07:59;10.88;;;2.95;;
48849;SDS011;63210;53.370;6.770;2022-11-04T22:11:26;13.00;;;3.17;;
48849;SDS011;63210;53.370;6.770;2022-11-04T22:14:21;12.52;;;4.25;;
48849;SDS011;63210;53.370;6.770;2022-11-04T22:17:10;16.48;;;3.30;;
48849;SDS011;63210;53.370;6.770;2022-11-04T22:19:47;14.18;;;3.30;;
48849;SDS011;63210;53.370;6.770;2022-11-04T22:22:22;11.02;;;4.05;;
48849;SDS011;63210;53.370;6.770;2022-11-04T22:25:18;11.25;;;3.40;;
48849;SDS011;63210;53.370;6.770;2022-11-04T22:31:42;9.15;;;3.05;;
48849;SDS011;63210;53.370;6.770;2022-11-04T22:41:31;14.68;;;3.50;;
48849;SDS011;63210;53.370;6.770;2022-11-04T22:47:41;7.80;;;3.20;;
48849;SDS011;63210;53.370;6.770;2022-11-04T22:51:18;15.52;;;3.83;;
48849;SDS011;63210;53.370;6.770;2022-11-04T22:57:32;12.00;;;3.50;;
48849;SDS011;63210;53.370;6.770;2022-11-04T23:11:26;14.32;;;3.55;;
48849;SDS011;63210;53.370;6.770;2022-11-04T23:14:36;10.20;;;3.38;;
48849;SDS011;63210;53.370;6.770;2022-11-04T23:21:07;10.88;;;3.80;;
48849;SDS011;63210;53.370;6.770;2022-11-04T23:38:16;6.50;;;3.22;;
48849;SDS011;63210;53.370;6.770;2022-11-04T23:41:11;8.55;;;3.47;;
48849;SDS011;63210;53.370;6.770;2022-11-04T23:44:30;11.75;;;4.55;;
48849;SDS011;63210;53.370;6.770;2022-11-04T23:47:38;7.03;;;3.17;;
48849;SDS011;63210;53.370;6.770;2022-11-04T23:50:33;5.07;;;3.00;;
